createdAt,value
2019-01-29T00:00:46.075Z,2.00
2019-01-29T00:03:15.517Z,2.00
2019-01-29T00:05:45.510Z,2.00
2019-01-29T00:08:14.901Z,2.00
2019-01-29T00:10:44.235Z,2.00
2019-01-29T00:13:13.604Z,2.00
2019-01-29T00:15:43.097Z,2.00
2019-01-29T00:18:12.508Z,1.90
2019-01-29T00:20:41.974Z,1.90
2019-01-29T00:23:11.472Z,1.80
2019-01-29T00:25:40.947Z,1.80
2019-01-29T00:28:10.724Z,1.70
2019-01-29T00:30:40.675Z,1.70
2019-01-29T00:33:11.297Z,1.70
2019-01-29T00:35:40.709Z,1.70
2019-01-29T00:38:11.044Z,1.60
2019-01-29T00:40:42.167Z,1.60
2019-01-29T00:43:11.887Z,1.60
2019-01-29T00:45:41.472Z,1.60
2019-01-29T00:48:10.840Z,1.70
2019-01-29T00:50:40.469Z,1.70
2019-01-29T00:53:10.396Z,1.70
2019-01-29T00:55:39.724Z,1.60
2019-01-29T00:58:09.262Z,1.60
2019-01-29T01:00:38.649Z,1.60
2019-01-29T01:03:08.068Z,1.50
2019-01-29T01:05:37.696Z,1.40
2019-01-29T01:08:07.048Z,1.40
2019-01-29T01:10:37.160Z,1.40
2019-01-29T01:13:06.671Z,1.40
2019-01-29T01:15:36.327Z,1.30
2019-01-29T01:18:05.598Z,1.30
2019-01-29T01:20:35.026Z,1.40
2019-01-29T01:23:05.264Z,1.50
2019-01-29T01:25:35.346Z,1.50
2019-01-29T01:28:05.833Z,1.40
2019-01-29T01:30:35.399Z,1.40
2019-01-29T01:33:04.873Z,1.40
2019-01-29T01:35:35.023Z,1.30
2019-01-29T01:38:04.407Z,1.20
2019-01-29T01:40:33.742Z,1.30
2019-01-29T01:43:03.128Z,1.30
2019-01-29T01:45:32.551Z,1.20
2019-01-29T01:48:05.625Z,1.20
2019-01-29T01:50:34.956Z,1.10
2019-01-29T01:53:04.255Z,1.10
2019-01-29T01:55:33.645Z,1.00
2019-01-29T01:58:03.650Z,1.10
2019-01-29T02:00:33.856Z,1.30
2019-01-29T02:03:03.539Z,1.20
2019-01-29T02:05:33.071Z,1.20
2019-01-29T02:08:03.051Z,1.20
2019-01-29T02:10:32.539Z,1.20
2019-01-29T02:13:02.044Z,1.20
2019-01-29T02:15:31.499Z,1.10
2019-01-29T02:18:01.103Z,1.20
2019-01-29T02:20:30.315Z,1.30
2019-01-29T02:23:07.575Z,1.30
2019-01-29T02:25:30.856Z,1.10
2019-01-29T02:28:00.553Z,1.10
2019-01-29T02:30:29.880Z,1.10
2019-01-29T02:32:59.303Z,1.00
2019-01-29T02:35:28.609Z,1.00
2019-01-29T02:37:59.198Z,1.00
2019-01-29T02:40:29.337Z,0.90
2019-01-29T02:42:59.735Z,1.00
2019-01-29T02:45:29.160Z,1.00
2019-01-29T02:47:58.473Z,1.00
2019-01-29T02:50:27.980Z,1.00
2019-01-29T02:52:57.418Z,1.00
2019-01-29T02:55:26.881Z,1.00
2019-01-29T02:57:56.447Z,1.00
2019-01-29T03:00:27.170Z,1.20
2019-01-29T03:02:56.670Z,1.10
2019-01-29T03:05:26.199Z,1.10
2019-01-29T03:07:55.514Z,1.00
2019-01-29T03:10:26.529Z,1.00
2019-01-29T03:12:57.124Z,1.00
2019-01-29T03:15:29.581Z,1.00
2019-01-29T03:17:59.228Z,1.00
2019-01-29T03:20:28.706Z,1.10
2019-01-29T03:22:58.068Z,1.10
2019-01-29T03:25:28.024Z,1.10
2019-01-29T03:27:57.438Z,1.10
2019-01-29T03:30:28.250Z,1.00
2019-01-29T03:32:57.692Z,1.00
2019-01-29T03:35:27.081Z,1.00
2019-01-29T03:37:56.550Z,1.00
2019-01-29T03:40:27.657Z,1.00
2019-01-29T03:42:57.027Z,1.00
2019-01-29T03:45:26.502Z,0.90
2019-01-29T03:47:55.863Z,0.90
2019-01-29T03:50:26.318Z,1.00
2019-01-29T03:52:55.727Z,0.90
2019-01-29T03:55:25.227Z,0.80
2019-01-29T03:57:54.605Z,0.80
2019-01-29T04:00:28.478Z,0.80
2019-01-29T04:02:58.010Z,0.80
2019-01-29T04:05:27.588Z,0.80
2019-01-29T04:07:56.945Z,0.70
2019-01-29T04:10:26.275Z,0.80
2019-01-29T04:12:55.588Z,0.80
2019-01-29T04:15:25.120Z,0.90
2019-01-29T04:17:56.762Z,0.90
2019-01-29T04:20:26.528Z,0.90
2019-01-29T04:22:55.824Z,0.90
2019-01-29T04:25:25.675Z,1.00
2019-01-29T04:27:55.558Z,1.00
2019-01-29T04:30:25.070Z,1.20
2019-01-29T04:32:54.683Z,1.20
2019-01-29T04:35:24.177Z,1.20
2019-01-29T04:37:53.663Z,1.10
2019-01-29T04:40:23.121Z,1.10
2019-01-29T04:42:53.487Z,1.00
2019-01-29T04:45:22.949Z,1.10
2019-01-29T04:47:52.356Z,1.00
2019-01-29T04:50:22.114Z,1.00
2019-01-29T04:52:52.083Z,0.90
2019-01-29T04:55:21.682Z,0.90
2019-01-29T04:57:51.032Z,0.80
2019-01-29T05:00:25.234Z,0.80
2019-01-29T05:03:04.439Z,0.70
2019-01-29T05:05:33.809Z,0.50
2019-01-29T05:08:03.201Z,0.40
2019-01-29T05:10:32.747Z,0.20
2019-01-29T05:13:03.280Z,0.10
2019-01-29T05:15:32.686Z,0.10
2019-01-29T05:18:02.248Z,0.20
2019-01-29T05:20:31.741Z,0.20
2019-01-29T05:23:01.491Z,0.10
2019-01-29T05:25:31.048Z,0.10
2019-01-29T05:28:00.511Z,0.30
2019-01-29T05:30:35.030Z,0.40
2019-01-29T05:33:04.551Z,0.60
2019-01-29T05:35:34.032Z,0.80
2019-01-29T05:38:04.198Z,1.00
2019-01-29T05:40:34.060Z,1.00
2019-01-29T05:43:04.723Z,1.10
2019-01-29T05:45:34.188Z,1.10
2019-01-29T05:48:03.598Z,1.10
2019-01-29T05:50:32.935Z,1.20
2019-01-29T05:53:02.233Z,1.20
2019-01-29T05:55:31.807Z,1.10
2019-01-29T05:58:01.311Z,1.20
2019-01-29T06:00:38.286Z,1.30
2019-01-29T06:03:08.210Z,1.30
2019-01-29T06:05:37.674Z,1.30
2019-01-29T06:08:08.007Z,1.30
2019-01-29T06:10:37.330Z,1.40
2019-01-29T06:13:06.847Z,1.50
2019-01-29T06:15:36.243Z,1.50
2019-01-29T06:18:05.610Z,1.60
2019-01-29T06:20:34.920Z,1.60
2019-01-29T06:23:04.421Z,1.60
2019-01-29T06:25:33.868Z,1.70
2019-01-29T06:28:03.311Z,1.80
2019-01-29T06:30:33.086Z,1.90
2019-01-29T06:33:03.708Z,1.90
2019-01-29T06:35:34.020Z,2.00
2019-01-29T06:38:03.720Z,1.90
2019-01-29T06:40:33.047Z,2.00
2019-01-29T06:43:02.911Z,2.00
2019-01-29T06:45:33.813Z,2.10
2019-01-29T06:48:03.983Z,2.20
2019-01-29T06:50:33.498Z,2.30
2019-01-29T06:53:03.010Z,2.20
2019-01-29T06:55:32.374Z,2.30
2019-01-29T06:58:02.039Z,2.30
2019-01-29T07:00:32.861Z,2.40
2019-01-29T07:03:02.776Z,2.40
2019-01-29T07:05:32.272Z,2.50
2019-01-29T07:08:01.995Z,2.50
2019-01-29T07:10:31.407Z,2.50
2019-01-29T07:13:00.929Z,2.60
2019-01-29T07:15:48.627Z,2.60
2019-01-29T07:18:25.440Z,2.70
2019-01-29T07:20:56.074Z,2.60
2019-01-29T07:23:25.966Z,2.50
2019-01-29T07:25:55.882Z,2.50
2019-01-29T07:28:28.199Z,2.50
2019-01-29T07:30:57.639Z,2.50
2019-01-29T07:33:27.418Z,2.60
2019-01-29T07:35:57.527Z,2.70
2019-01-29T07:38:26.897Z,2.70
2019-01-29T07:40:56.969Z,2.80
2019-01-29T07:43:26.570Z,3.00
2019-01-29T07:45:57.064Z,3.10
2019-01-29T07:48:26.955Z,3.30
2019-01-29T07:50:58.113Z,3.30
2019-01-29T07:53:27.482Z,3.10
2019-01-29T07:55:56.932Z,3.00
2019-01-29T07:58:26.414Z,3.00
2019-01-29T08:00:56.463Z,2.90
2019-01-29T08:03:26.504Z,2.80
2019-01-29T08:05:56.017Z,2.70
2019-01-29T08:08:26.919Z,2.80
2019-01-29T08:10:56.909Z,2.80
2019-01-29T08:13:26.836Z,3.10
2019-01-29T08:15:56.211Z,3.20
2019-01-29T08:18:25.724Z,3.50
2019-01-29T08:20:55.280Z,3.40
2019-01-29T08:23:25.304Z,3.40
2019-01-29T08:25:57.338Z,3.40
2019-01-29T08:28:27.313Z,3.50
2019-01-29T08:30:57.271Z,3.60
2019-01-29T08:33:27.264Z,3.40
2019-01-29T08:35:56.565Z,3.20
2019-01-29T08:38:27.047Z,3.40
2019-01-29T08:40:57.230Z,3.60
2019-01-29T08:43:27.247Z,3.90
2019-01-29T08:45:57.268Z,3.60
2019-01-29T08:48:27.405Z,3.70
2019-01-29T08:50:58.241Z,4.00
2019-01-29T08:53:29.997Z,4.20
2019-01-29T08:56:00.002Z,4.20
2019-01-29T08:58:30.171Z,4.00
2019-01-29T09:01:00.141Z,4.10
2019-01-29T09:03:30.168Z,4.40
2019-01-29T09:06:00.362Z,4.60
2019-01-29T09:08:30.329Z,5.10
2019-01-29T09:11:00.322Z,5.20
2019-01-29T09:13:30.448Z,5.10
2019-01-29T09:16:01.939Z,4.80
2019-01-29T09:18:31.908Z,4.60
2019-01-29T09:21:01.851Z,4.40
2019-01-29T09:23:33.168Z,4.40
2019-01-29T09:26:03.173Z,4.60
2019-01-29T09:28:33.208Z,4.50
2019-01-29T09:31:03.459Z,4.50
2019-01-29T09:33:33.628Z,4.50
2019-01-29T09:36:03.807Z,4.50
2019-01-29T09:38:33.794Z,4.90
2019-01-29T09:41:03.722Z,5.30
2019-01-29T09:43:33.739Z,5.60
2019-01-29T09:46:03.822Z,5.70
2019-01-29T09:48:35.163Z,5.50
2019-01-29T09:51:05.381Z,5.50
2019-01-29T09:53:36.255Z,5.20
2019-01-29T09:56:06.863Z,5.20
2019-01-29T09:58:37.089Z,5.30
2019-01-29T10:01:07.451Z,5.00
2019-01-29T10:03:37.399Z,4.90
2019-01-29T10:06:07.325Z,5.10
2019-01-29T10:34:40.255Z,4.40
2019-01-29T10:37:10.225Z,4.00
2019-01-29T10:39:40.123Z,3.90
2019-01-29T10:42:10.031Z,3.80
2019-01-29T10:44:40.144Z,3.90
2019-01-29T10:47:14.873Z,4.10
2019-01-29T10:49:45.137Z,4.30
2019-01-29T10:52:15.035Z,4.30
2019-01-29T10:54:44.919Z,4.10
2019-01-29T10:57:14.792Z,4.00
2019-01-29T10:59:44.698Z,3.80
2019-01-29T11:02:13.992Z,3.80
2019-01-29T11:04:43.877Z,4.10
2019-01-29T11:07:13.215Z,4.10
2019-01-29T11:09:43.155Z,4.20
2019-01-29T11:12:12.665Z,4.40
2019-01-29T11:14:42.606Z,4.50
2019-01-29T11:17:12.012Z,4.40
2019-01-29T11:19:43.075Z,4.60
2019-01-29T11:22:13.058Z,4.50
2019-01-29T11:24:45.031Z,4.80
2019-01-29T11:27:14.503Z,5.00
2019-01-29T11:29:44.431Z,4.60
2019-01-29T11:32:14.381Z,4.80
2019-01-29T11:34:44.324Z,4.90
2019-01-29T11:37:13.707Z,4.80
2019-01-29T11:39:43.670Z,4.70
2019-01-29T11:42:14.697Z,4.50
2019-01-29T11:44:44.730Z,4.70
2019-01-29T11:47:14.677Z,4.50
2019-01-29T11:49:44.019Z,4.10
2019-01-29T11:52:14.745Z,4.20
2019-01-29T11:54:44.237Z,4.20
2019-01-29T11:57:14.333Z,4.50
2019-01-29T11:59:44.344Z,4.60
2019-01-29T12:02:16.252Z,4.60
2019-01-29T12:04:45.283Z,4.70
2019-01-29T12:07:15.203Z,4.10
2019-01-29T12:09:45.146Z,4.10
2019-01-29T12:12:15.139Z,4.00
2019-01-29T12:14:45.035Z,3.80
2019-01-29T12:17:14.994Z,3.90
2019-01-29T12:19:45.103Z,3.90
2019-01-29T12:22:17.714Z,4.10
2019-01-29T12:24:47.771Z,4.10
2019-01-29T12:27:18.732Z,4.00
2019-01-29T12:29:48.063Z,3.90
2019-01-29T12:32:17.939Z,4.10
2019-01-29T12:34:47.242Z,4.00
2019-01-29T12:37:17.175Z,4.00
2019-01-29T12:39:46.476Z,4.00
2019-01-29T12:42:16.355Z,4.00
2019-01-29T12:44:45.790Z,3.90
2019-01-29T12:47:16.067Z,4.10
2019-01-29T12:49:46.053Z,4.30
2019-01-29T12:52:18.446Z,6.10
2019-01-29T12:54:48.489Z,7.70
2019-01-29T12:57:18.421Z,9.10
2019-01-29T12:59:48.375Z,10.30
2019-01-29T13:02:18.291Z,9.30
2019-01-29T13:04:48.199Z,9.90
2019-01-29T13:07:18.375Z,9.80
2019-01-29T13:09:48.246Z,8.70
2019-01-29T13:12:18.127Z,8.90
2019-01-29T13:14:48.047Z,9.60
2019-01-29T13:17:17.927Z,9.30
2019-01-29T13:19:47.942Z,8.20
2019-01-29T13:22:17.832Z,10.70
2019-01-29T13:24:47.785Z,10.80
2019-01-29T13:27:17.743Z,8.40
2019-01-29T13:29:47.616Z,6.80
2019-01-29T13:32:17.531Z,6.00
2019-01-29T13:34:47.407Z,7.00
2019-01-29T13:37:17.287Z,9.40
2019-01-29T13:39:47.170Z,11.30
2019-01-29T13:42:17.139Z,11.30
2019-01-29T13:44:47.067Z,10.40
2019-01-29T13:47:18.656Z,9.30
2019-01-29T13:49:48.570Z,9.20
2019-01-29T13:52:18.455Z,9.10
2019-01-29T13:54:49.292Z,7.90
2019-01-29T13:57:19.169Z,7.50
2019-01-29T13:59:49.048Z,6.70
2019-01-29T14:02:18.964Z,6.00
2019-01-29T14:04:48.945Z,5.20
2019-01-29T14:07:18.823Z,4.90
2019-01-29T14:09:48.706Z,4.70
2019-01-29T14:12:18.584Z,4.30
2019-01-29T14:14:48.492Z,4.10
2019-01-29T14:17:18.365Z,4.20
2019-01-29T14:19:48.240Z,4.30
2019-01-29T14:22:18.241Z,4.30
2019-01-29T14:24:48.188Z,4.20
2019-01-29T14:27:18.067Z,4.00
2019-01-29T14:29:47.370Z,4.00
2019-01-29T14:32:16.739Z,3.80
2019-01-29T14:34:46.730Z,3.80
2019-01-29T14:37:16.598Z,3.50
2019-01-29T14:39:55.028Z,3.40
2019-01-29T14:42:24.898Z,3.50
2019-01-29T14:44:54.778Z,3.70
2019-01-29T14:47:24.115Z,3.70
2019-01-29T14:49:53.414Z,3.50
2019-01-29T14:52:23.315Z,3.40
2019-01-29T14:54:52.748Z,3.40
2019-01-29T14:57:22.056Z,3.40
2019-01-29T14:59:51.363Z,3.30
2019-01-29T15:02:21.441Z,3.50
2019-01-29T15:04:50.753Z,3.60
2019-01-29T15:07:20.196Z,3.40
2019-01-29T15:09:49.841Z,3.30
2019-01-29T15:12:19.400Z,3.40
2019-01-29T15:14:49.474Z,3.40
2019-01-29T15:17:26.564Z,3.50
2019-01-29T15:19:56.022Z,3.40
2019-01-29T15:22:25.397Z,3.40
2019-01-29T15:24:54.954Z,3.40
2019-01-29T15:27:24.907Z,3.50
2019-01-29T15:29:55.299Z,3.30
2019-01-29T15:32:24.633Z,3.40
2019-01-29T15:34:54.652Z,3.30
2019-01-29T15:37:24.675Z,3.30
2019-01-29T15:39:54.135Z,3.30
2019-01-29T15:42:24.087Z,3.30
2019-01-29T15:44:53.551Z,3.40
2019-01-29T15:47:23.350Z,3.40
2019-01-29T15:49:52.680Z,3.40
2019-01-29T15:52:22.751Z,3.40
2019-01-29T15:54:52.388Z,3.60
2019-01-29T15:57:22.448Z,3.60
2019-01-29T15:59:52.690Z,3.40
2019-01-29T16:02:21.987Z,3.40
2019-01-29T16:04:51.419Z,3.50
2019-01-29T16:07:20.991Z,3.50
2019-01-29T16:09:51.001Z,3.40
2019-01-29T16:12:20.320Z,3.50
2019-01-29T16:14:49.691Z,3.50
2019-01-29T16:17:19.610Z,3.50
2019-01-29T16:19:49.539Z,3.60
2019-01-29T16:22:19.636Z,3.60
2019-01-29T16:24:49.158Z,3.50
2019-01-29T16:27:22.710Z,3.50
2019-01-29T16:29:50.325Z,3.50
2019-01-29T16:32:20.283Z,3.50
2019-01-29T16:34:49.694Z,3.40
2019-01-29T16:37:19.571Z,3.40
2019-01-29T16:39:48.990Z,3.40
2019-01-29T16:42:19.055Z,3.30
2019-01-29T16:44:49.016Z,3.30
2019-01-29T16:47:19.012Z,3.30
2019-01-29T16:49:48.602Z,3.30
2019-01-29T16:52:18.752Z,3.40
2019-01-29T16:54:48.111Z,3.30
2019-01-29T16:57:18.051Z,3.40
2019-01-29T16:59:48.305Z,3.40
2019-01-29T17:02:18.318Z,3.50
2019-01-29T17:04:48.006Z,3.40
2019-01-29T17:07:17.948Z,3.30
2019-01-29T17:09:48.666Z,3.30
2019-01-29T17:12:18.319Z,3.30
2019-01-29T17:14:49.672Z,3.30
2019-01-29T17:17:18.555Z,3.20
2019-01-29T17:19:47.927Z,3.20
2019-01-29T17:22:17.283Z,3.30
2019-01-29T17:24:47.222Z,3.30
2019-01-29T17:27:16.549Z,3.40
2019-01-29T17:29:45.852Z,3.40
2019-01-29T17:32:15.146Z,3.30
2019-01-29T17:34:45.094Z,3.10
2019-01-29T17:37:14.397Z,3.10
2019-01-29T17:39:43.726Z,3.20
2019-01-29T17:42:13.739Z,3.10
2019-01-29T17:44:43.622Z,3.10
2019-01-29T17:47:12.945Z,2.90
2019-01-29T17:49:42.297Z,2.90
2019-01-29T17:52:11.576Z,2.80
2019-01-29T17:54:40.881Z,2.80
2019-01-29T17:57:11.870Z,2.80
2019-01-29T17:59:41.195Z,2.80
2019-01-29T18:02:12.040Z,2.70
2019-01-29T18:04:41.578Z,2.70
2019-01-29T18:07:10.861Z,2.80
2019-01-29T18:09:40.206Z,2.80
2019-01-29T18:12:09.580Z,2.80
2019-01-29T18:14:38.882Z,2.60
2019-01-29T18:17:08.221Z,2.50
2019-01-29T18:19:37.527Z,2.70
2019-01-29T18:22:07.406Z,2.80
2019-01-29T18:24:37.380Z,2.80
2019-01-29T18:27:06.748Z,2.70
2019-01-29T18:29:36.049Z,2.70
2019-01-29T18:32:05.465Z,2.60
2019-01-29T18:34:34.755Z,2.50
2019-01-29T18:37:04.119Z,2.50
2019-01-29T18:39:33.615Z,2.60
2019-01-29T18:42:03.056Z,2.70
2019-01-29T18:44:32.357Z,2.60
2019-01-29T18:47:01.686Z,2.60
2019-01-29T18:49:30.992Z,2.50
2019-01-29T18:52:01.448Z,2.60
2019-01-29T18:54:31.342Z,2.60
2019-01-29T18:57:00.644Z,2.70
2019-01-29T18:59:29.990Z,2.60
2019-01-29T19:01:59.438Z,2.60
2019-01-29T19:04:29.577Z,2.70
2019-01-29T19:06:59.513Z,2.70
2019-01-29T19:09:29.406Z,2.70
2019-01-29T19:11:58.900Z,2.70
2019-01-29T19:14:28.202Z,2.70
2019-01-29T19:16:57.529Z,2.70
2019-01-29T19:19:26.969Z,2.70
2019-01-29T19:21:56.194Z,2.60
2019-01-29T19:24:25.497Z,2.60
2019-01-29T19:26:55.480Z,2.60
2019-01-29T19:29:24.786Z,2.60
2019-01-29T19:31:54.089Z,2.50
2019-01-29T19:34:23.567Z,2.50
2019-01-29T19:36:53.438Z,2.50
2019-01-29T19:39:22.887Z,2.50
2019-01-29T19:41:52.822Z,2.60
2019-01-29T19:44:22.429Z,2.60
2019-01-29T19:46:52.375Z,2.60
2019-01-29T19:49:22.431Z,2.60
2019-01-29T19:51:52.614Z,2.60
2019-01-29T19:54:22.342Z,2.60
2019-01-29T19:56:52.338Z,2.60
2019-01-29T19:59:22.229Z,2.60
2019-01-29T20:01:52.127Z,2.60
2019-01-29T20:04:22.162Z,2.60
2019-01-29T20:06:52.397Z,2.50
2019-01-29T20:09:21.711Z,2.60
2019-01-29T20:11:51.087Z,2.70
2019-01-29T20:14:20.490Z,2.60
2019-01-29T20:16:49.855Z,2.60
2019-01-29T20:19:19.419Z,2.50
2019-01-29T20:21:49.338Z,2.60
2019-01-29T20:24:18.770Z,2.60
2019-01-29T20:26:48.139Z,2.70
2019-01-29T20:29:18.120Z,2.70
2019-01-29T20:31:48.003Z,2.70
2019-01-29T20:34:17.778Z,2.80
2019-01-29T20:36:47.437Z,2.70
2019-01-29T20:39:17.651Z,2.80
2019-01-29T20:41:47.767Z,2.70
2019-01-29T20:44:17.231Z,2.70
2019-01-29T20:46:46.808Z,2.80
2019-01-29T20:49:18.887Z,2.80
2019-01-29T20:51:47.935Z,2.80
2019-01-29T20:54:17.888Z,2.60
2019-01-29T20:56:47.250Z,2.60
2019-01-29T20:59:16.581Z,2.50
2019-01-29T21:01:48.879Z,2.50
2019-01-29T21:04:18.224Z,2.70
2019-01-29T21:06:47.607Z,2.80
2019-01-29T21:09:18.930Z,2.80
2019-01-29T21:11:48.192Z,2.70
2019-01-29T21:14:18.258Z,2.70
2019-01-29T21:16:47.555Z,2.70
2019-01-29T21:19:16.883Z,2.70
2019-01-29T21:21:46.231Z,2.70
2019-01-29T21:24:15.604Z,2.70
2019-01-29T21:26:44.931Z,2.70
2019-01-29T21:29:14.917Z,2.70
2019-01-29T21:31:44.890Z,2.70
2019-01-29T21:34:14.209Z,2.70
2019-01-29T21:36:44.350Z,2.60
2019-01-29T21:39:14.371Z,2.60
2019-01-29T21:41:44.660Z,2.70
2019-01-29T21:44:14.230Z,3.20
2019-01-29T21:49:14.001Z,3.00
2019-01-29T21:51:43.414Z,2.50
2019-01-29T21:54:12.907Z,2.80
2019-01-29T21:56:42.773Z,2.70
2019-01-29T21:59:13.659Z,2.70
2019-01-29T22:01:43.979Z,2.60
2019-01-29T22:04:14.146Z,2.60
2019-01-29T22:06:44.253Z,2.60
2019-01-29T22:09:14.135Z,2.70
2019-01-29T22:11:44.171Z,3.00
2019-01-29T22:14:17.084Z,2.70
2019-01-29T22:16:47.050Z,2.90
2019-01-29T22:19:16.486Z,2.60
2019-01-29T22:21:46.516Z,2.60
2019-01-29T22:24:16.658Z,2.20
2019-01-29T22:26:46.565Z,2.90
2019-01-29T22:29:23.157Z,2.30
2019-01-29T22:34:17.396Z,2.10
2019-01-29T22:36:47.385Z,2.70
2019-01-29T22:39:16.866Z,2.60
2019-01-29T22:41:54.086Z,2.30
2019-01-29T22:44:24.065Z,2.60
2019-01-29T22:46:53.948Z,2.70
2019-01-29T22:49:23.271Z,2.30
2019-01-29T22:54:21.827Z,2.70
2019-01-29T22:56:54.578Z,2.50
2019-01-29T22:59:33.185Z,2.40
2019-01-29T23:06:55.515Z,2.50
2019-01-29T23:09:25.543Z,2.50
2019-01-29T23:11:55.847Z,2.60
2019-01-29T23:16:56.163Z,3.30
2019-01-29T23:24:25.170Z,2.70
2019-01-29T23:26:55.067Z,2.50
2019-01-29T23:31:54.082Z,2.90
2019-01-29T23:34:23.558Z,2.20
2019-01-29T23:41:51.771Z,3.30
2019-01-29T23:46:52.868Z,2.50
2019-01-29T23:49:22.774Z,2.80
2019-01-29T23:56:51.873Z,2.40
2019-01-29T23:59:21.763Z,2.30
